Aérodrome :
LOGIN :

S'inscrire | Disclaimer

   EN    FR    IT 

 










Légende :    VFR   VFR Marginal   IFR   IFR Intensif   IFR Très Intensif
Visi : 
Plafond : 
>= 8 km
>= 3000ft
5 à 8 km
1000 à 3000 ft
1500m à 5 km
500 à 1000 ft
800 à 1500m
200 à 500 ft
< 800m
< 200 ft
Symboles :   Orages  Brouillard  Fortes neiges  Fortes précipitations  Vent > 20 kt
SIGMETs :   Divers  Orages  Givrage  Turbulence  Onde Orograph.  Cendres Volcan.






- Altitude de l'aérodrome : 425 ft
- Code IATA : DTM


EDLW - Dortmund

DERNIER METAR :
  • 091050Z 20010KT 9999 SCT017 05/02 Q1004

METARs EXPIRÉS :
  • 091020Z 19010KT 9999 FEW039 04/01 Q1004
  • 090950Z 19010KT CAVOK 04/01 Q1004
  • 090920Z 18011KT CAVOK 03/01 Q1004
  • 090850Z 18009KT CAVOK 02/00 Q1004
  • 090820Z 18007KT CAVOK 02/00 Q1004

TAF TAF EDLW
Valide du 09 à 06h jusqu'au 10 à 06h UTC


090500Z 0906/1006 20009KT 9999 SCT030
BECMG 1003/1006 14010KT



MET'MAP, la Météo Aéronautique d'un coup d'oeil ! - Copyright ORBIFLY Décembre 2007 - Disclaimer

ORBIFLY MET'MAP TEAM :

Programmation & Développement : Alexandra Zaïnal
Sur une idée originale de : Baudouin d'Aumeries
Assistance à la programmation : Marc-Olivier Méhu
Soutien technique & logistique : Manuel Goepfert

Contact : metmap@orbifly.com




SOURCES & CREDITS :

   NOAA